sensor_id;sensor_type;location;lat;lon;timestamp;P1;durP1;ratioP1;P2;durP2;ratioP2
10343;SDS011;5217;43.960;10.954;2022-08-16T00:01:25;2.17;;;1.70;;
10343;SDS011;5217;43.960;10.954;2022-08-16T00:03:59;3.00;;;1.90;;
10343;SDS011;5217;43.960;10.954;2022-08-16T00:06:30;5.70;;;1.75;;
10343;SDS011;5217;43.960;10.954;2022-08-16T00:09:02;3.40;;;1.67;;
10343;SDS011;5217;43.960;10.954;2022-08-16T00:11:32;6.25;;;1.98;;
10343;SDS011;5217;43.960;10.954;2022-08-16T00:14:02;4.03;;;1.88;;
10343;SDS011;5217;43.960;10.954;2022-08-16T00:16:34;5.47;;;1.90;;
10343;SDS011;5217;43.960;10.954;2022-08-16T00:19:23;5.03;;;2.20;;
10343;SDS011;5217;43.960;10.954;2022-08-16T00:22:07;5.75;;;2.03;;
10343;SDS011;5217;43.960;10.954;2022-08-16T00:24:40;4.85;;;1.80;;
10343;SDS011;5217;43.960;10.954;2022-08-16T00:27:18;4.85;;;1.85;;
10343;SDS011;5217;43.960;10.954;2022-08-16T00:29:46;4.57;;;2.08;;
10343;SDS011;5217;43.960;10.954;2022-08-16T00:32:34;3.47;;;2.10;;
10343;SDS011;5217;43.960;10.954;2022-08-16T00:35:04;5.78;;;1.98;;
10343;SDS011;5217;43.960;10.954;2022-08-16T00:37:40;6.13;;;1.90;;
10343;SDS011;5217;43.960;10.954;2022-08-16T00:40:25;3.92;;;2.05;;
10343;SDS011;5217;43.960;10.954;2022-08-16T00:43:05;6.68;;;1.88;;
10343;SDS011;5217;43.960;10.954;2022-08-16T00:45:43;2.85;;;1.80;;
10343;SDS011;5217;43.960;10.954;2022-08-16T00:48:25;7.90;;;1.90;;
10343;SDS011;5217;43.960;10.954;2022-08-16T00:51:09;3.92;;;2.00;;
10343;SDS011;5217;43.960;10.954;2022-08-16T00:53:42;4.85;;;2.17;;
10343;SDS011;5217;43.960;10.954;2022-08-16T00:56:13;3.17;;;1.90;;
10343;SDS011;5217;43.960;10.954;2022-08-16T00:59:06;5.70;;;2.13;;
10343;SDS011;5217;43.960;10.954;2022-08-16T01:01:40;4.60;;;2.00;;
10343;SDS011;5217;43.960;10.954;2022-08-16T01:04:10;4.63;;;1.90;;
10343;SDS011;5217;43.960;10.954;2022-08-16T01:06:56;4.18;;;2.28;;
10343;SDS011;5217;43.960;10.954;2022-08-16T01:09:28;4.35;;;1.90;;
10343;SDS011;5217;43.960;10.954;2022-08-16T01:11:59;4.40;;;1.98;;
10343;SDS011;5217;43.960;10.954;2022-08-16T01:14:36;3.97;;;1.83;;
10343;SDS011;5217;43.960;10.954;2022-08-16T01:17:14;4.32;;;2.30;;
10343;SDS011;5217;43.960;10.954;2022-08-16T01:19:50;3.03;;;2.10;;
10343;SDS011;5217;43.960;10.954;2022-08-16T01:22:26;4.88;;;2.35;;
10343;SDS011;5217;43.960;10.954;2022-08-16T01:25:25;5.75;;;2.28;;
10343;SDS011;5217;43.960;10.954;2022-08-16T01:28:00;5.18;;;2.35;;
10343;SDS011;5217;43.960;10.954;2022-08-16T01:30:33;5.65;;;2.40;;
10343;SDS011;5217;43.960;10.954;2022-08-16T01:33:16;4.85;;;2.20;;
10343;SDS011;5217;43.960;10.954;2022-08-16T01:35:49;6.80;;;2.30;;
10343;SDS011;5217;43.960;10.954;2022-08-16T01:38:23;5.70;;;2.38;;
10343;SDS011;5217;43.960;10.954;2022-08-16T01:40:56;4.15;;;2.10;;
10343;SDS011;5217;43.960;10.954;2022-08-16T01:43:28;5.75;;;2.22;;
10343;SDS011;5217;43.960;10.954;2022-08-16T01:45:58;5.25;;;2.10;;
10343;SDS011;5217;43.960;10.954;2022-08-16T01:48:49;6.15;;;2.30;;
10343;SDS011;5217;43.960;10.954;2022-08-16T01:51:21;6.13;;;2.00;;
10343;SDS011;5217;43.960;10.954;2022-08-16T01:53:52;3.83;;;2.00;;
10343;SDS011;5217;43.960;10.954;2022-08-16T01:56:23;6.90;;;2.42;;
10343;SDS011;5217;43.960;10.954;2022-08-16T01:58:53;4.53;;;2.35;;
10343;SDS011;5217;43.960;10.954;2022-08-16T02:01:23;3.80;;;1.98;;
10343;SDS011;5217;43.960;10.954;2022-08-16T02:03:53;6.50;;;2.28;;
10343;SDS011;5217;43.960;10.954;2022-08-16T02:06:35;7.22;;;2.72;;
10343;SDS011;5217;43.960;10.954;2022-08-16T02:09:12;4.75;;;2.20;;
10343;SDS011;5217;43.960;10.954;2022-08-16T02:11:46;7.55;;;2.42;;
10343;SDS011;5217;43.960;10.954;2022-08-16T02:14:21;5.00;;;2.40;;
10343;SDS011;5217;43.960;10.954;2022-08-16T02:16:53;4.25;;;2.10;;
10343;SDS011;5217;43.960;10.954;2022-08-16T02:19:22;6.97;;;2.40;;
10343;SDS011;5217;43.960;10.954;2022-08-16T02:22:13;4.05;;;2.35;;
10343;SDS011;5217;43.960;10.954;2022-08-16T02:25:02;6.68;;;2.45;;
10343;SDS011;5217;43.960;10.954;2022-08-16T02:27:37;7.88;;;2.47;;
10343;SDS011;5217;43.960;10.954;2022-08-16T02:30:08;5.78;;;2.25;;
10343;SDS011;5217;43.960;10.954;2022-08-16T02:32:59;5.97;;;2.72;;
10343;SDS011;5217;43.960;10.954;2022-08-16T02:35:30;6.05;;;2.63;;
10343;SDS011;5217;43.960;10.954;2022-08-16T02:38:19;4.10;;;2.22;;
10343;SDS011;5217;43.960;10.954;2022-08-16T02:40:49;5.20;;;2.40;;
10343;SDS011;5217;43.960;10.954;2022-08-16T02:43:21;4.00;;;2.35;;
10343;SDS011;5217;43.960;10.954;2022-08-16T02:45:51;4.47;;;2.40;;
10343;SDS011;5217;43.960;10.954;2022-08-16T02:48:20;5.68;;;2.30;;
10343;SDS011;5217;43.960;10.954;2022-08-16T02:50:56;4.38;;;2.30;;
10343;SDS011;5217;43.960;10.954;2022-08-16T02:53:36;6.85;;;2.45;;
10343;SDS011;5217;43.960;10.954;2022-08-16T02:56:09;4.35;;;2.30;;
10343;SDS011;5217;43.960;10.954;2022-08-16T02:58:42;6.05;;;2.30;;
10343;SDS011;5217;43.960;10.954;2022-08-16T03:01:11;6.75;;;2.40;;
10343;SDS011;5217;43.960;10.954;2022-08-16T03:04:00;7.15;;;2.50;;
10343;SDS011;5217;43.960;10.954;2022-08-16T03:06:50;4.40;;;2.22;;
10343;SDS011;5217;43.960;10.954;2022-08-16T03:09:22;3.35;;;2.20;;
10343;SDS011;5217;43.960;10.954;2022-08-16T03:11:57;7.95;;;2.10;;
10343;SDS011;5217;43.960;10.954;2022-08-16T03:14:29;4.20;;;2.03;;
10343;SDS011;5217;43.960;10.954;2022-08-16T03:16:58;8.80;;;2.72;;
10343;SDS011;5217;43.960;10.954;2022-08-16T03:19:28;5.30;;;2.10;;
10343;SDS011;5217;43.960;10.954;2022-08-16T03:22:14;6.28;;;2.40;;
10343;SDS011;5217;43.960;10.954;2022-08-16T03:24:52;3.53;;;2.20;;
10343;SDS011;5217;43.960;10.954;2022-08-16T03:27:23;4.00;;;2.35;;
10343;SDS011;5217;43.960;10.954;2022-08-16T03:29:58;4.18;;;1.88;;
10343;SDS011;5217;43.960;10.954;2022-08-16T03:32:42;4.95;;;2.20;;
10343;SDS011;5217;43.960;10.954;2022-08-16T03:35:13;3.92;;;2.00;;
10343;SDS011;5217;43.960;10.954;2022-08-16T03:37:44;3.92;;;2.25;;
10343;SDS011;5217;43.960;10.954;2022-08-16T03:40:29;6.68;;;2.42;;
10343;SDS011;5217;43.960;10.954;2022-08-16T03:42:59;6.13;;;2.00;;
10343;SDS011;5217;43.960;10.954;2022-08-16T03:45:48;4.25;;;2.30;;
10343;SDS011;5217;43.960;10.954;2022-08-16T03:48:19;6.68;;;2.03;;
10343;SDS011;5217;43.960;10.954;2022-08-16T03:51:06;4.40;;;2.38;;
10343;SDS011;5217;43.960;10.954;2022-08-16T03:53:38;5.25;;;2.22;;
10343;SDS011;5217;43.960;10.954;2022-08-16T03:56:08;5.05;;;2.38;;
10343;SDS011;5217;43.960;10.954;2022-08-16T03:58:46;5.78;;;2.22;;
10343;SDS011;5217;43.960;10.954;2022-08-16T04:01:19;6.43;;;2.35;;
10343;SDS011;5217;43.960;10.954;2022-08-16T04:03:50;4.60;;;2.17;;
10343;SDS011;5217;43.960;10.954;2022-08-16T04:06:20;8.27;;;2.65;;
10343;SDS011;5217;43.960;10.954;2022-08-16T04:08:49;5.63;;;2.33;;
10343;SDS011;5217;43.960;10.954;2022-08-16T04:11:18;5.50;;;2.42;;
10343;SDS011;5217;43.960;10.954;2022-08-16T04:13:49;6.07;;;2.28;;
10343;SDS011;5217;43.960;10.954;2022-08-16T04:16:39;7.05;;;2.53;;
10343;SDS011;5217;43.960;10.954;2022-08-16T04:19:08;7.90;;;2.30;;
10343;SDS011;5217;43.960;10.954;2022-08-16T04:21:37;5.47;;;2.47;;
10343;SDS011;5217;43.960;10.954;2022-08-16T04:24:12;5.57;;;2.10;;
10343;SDS011;5217;43.960;10.954;2022-08-16T04:26:42;3.38;;;2.03;;
10343;SDS011;5217;43.960;10.954;2022-08-16T04:29:11;6.15;;;2.38;;
10343;SDS011;5217;43.960;10.954;2022-08-16T04:31:51;4.40;;;2.20;;
10343;SDS011;5217;43.960;10.954;2022-08-16T04:34:24;9.05;;;2.55;;
10343;SDS011;5217;43.960;10.954;2022-08-16T04:36:54;5.07;;;2.10;;
10343;SDS011;5217;43.960;10.954;2022-08-16T04:39:23;3.97;;;2.45;;
10343;SDS011;5217;43.960;10.954;2022-08-16T04:42:13;2.97;;;2.08;;
10343;SDS011;5217;43.960;10.954;2022-08-16T04:44:43;4.20;;;2.47;;
10343;SDS011;5217;43.960;10.954;2022-08-16T04:47:21;5.18;;;2.10;;
10343;SDS011;5217;43.960;10.954;2022-08-16T04:49:57;9.98;;;2.35;;
10343;SDS011;5217;43.960;10.954;2022-08-16T04:52:26;5.20;;;2.35;;
10343;SDS011;5217;43.960;10.954;2022-08-16T04:55:01;5.25;;;2.40;;
10343;SDS011;5217;43.960;10.954;2022-08-16T04:57:33;3.95;;;2.20;;
10343;SDS011;5217;43.960;10.954;2022-08-16T05:00:04;3.03;;;2.10;;
10343;SDS011;5217;43.960;10.954;2022-08-16T05:03:01;6.63;;;2.65;;
10343;SDS011;5217;43.960;10.954;2022-08-16T05:05:34;5.90;;;2.30;;
10343;SDS011;5217;43.960;10.954;2022-08-16T05:08:21;4.60;;;2.03;;
10343;SDS011;5217;43.960;10.954;2022-08-16T05:10:55;7.78;;;2.55;;
10343;SDS011;5217;43.960;10.954;2022-08-16T05:13:30;5.75;;;2.53;;
10343;SDS011;5217;43.960;10.954;2022-08-16T05:16:06;4.53;;;2.35;;
10343;SDS011;5217;43.960;10.954;2022-08-16T05:18:46;6.53;;;2.42;;
10343;SDS011;5217;43.960;10.954;2022-08-16T05:21:16;6.97;;;2.15;;
10343;SDS011;5217;43.960;10.954;2022-08-16T05:23:47;9.77;;;2.50;;
10343;SDS011;5217;43.960;10.954;2022-08-16T05:26:25;6.07;;;2.25;;
10343;SDS011;5217;43.960;10.954;2022-08-16T05:28:55;7.63;;;2.42;;
10343;SDS011;5217;43.960;10.954;2022-08-16T05:31:24;5.40;;;2.30;;
10343;SDS011;5217;43.960;10.954;2022-08-16T05:33:57;6.03;;;2.22;;
10343;SDS011;5217;43.960;10.954;2022-08-16T05:36:29;8.48;;;2.10;;
10343;SDS011;5217;43.960;10.954;2022-08-16T05:39:02;5.32;;;2.55;;
10343;SDS011;5217;43.960;10.954;2022-08-16T05:41:34;5.38;;;2.20;;
10343;SDS011;5217;43.960;10.954;2022-08-16T05:44:11;6.30;;;2.25;;
10343;SDS011;5217;43.960;10.954;2022-08-16T05:46:50;4.18;;;2.22;;
10343;SDS011;5217;43.960;10.954;2022-08-16T05:49:23;2.47;;;2.10;;
10343;SDS011;5217;43.960;10.954;2022-08-16T05:52:05;6.57;;;2.65;;
10343;SDS011;5217;43.960;10.954;2022-08-16T05:54:39;5.18;;;2.30;;
10343;SDS011;5217;43.960;10.954;2022-08-16T05:57:12;5.88;;;2.42;;
10343;SDS011;5217;43.960;10.954;2022-08-16T05:59:40;5.97;;;2.40;;
10343;SDS011;5217;43.960;10.954;2022-08-16T06:02:09;4.93;;;2.13;;
10343;SDS011;5217;43.960;10.954;2022-08-16T06:04:39;5.50;;;2.20;;
10343;SDS011;5217;43.960;10.954;2022-08-16T06:07:11;5.90;;;2.40;;
10343;SDS011;5217;43.960;10.954;2022-08-16T06:09:51;6.47;;;2.40;;
10343;SDS011;5217;43.960;10.954;2022-08-16T06:12:21;4.53;;;2.40;;
10343;SDS011;5217;43.960;10.954;2022-08-16T06:14:53;5.90;;;2.22;;
10343;SDS011;5217;43.960;10.954;2022-08-16T06:17:25;11.07;;;2.88;;
10343;SDS011;5217;43.960;10.954;2022-08-16T06:20:11;5.43;;;2.00;;
10343;SDS011;5217;43.960;10.954;2022-08-16T06:22:48;6.85;;;2.33;;
10343;SDS011;5217;43.960;10.954;2022-08-16T06:25:29;6.10;;;2.25;;
10343;SDS011;5217;43.960;10.954;2022-08-16T06:28:04;6.88;;;2.50;;
10343;SDS011;5217;43.960;10.954;2022-08-16T06:30:34;5.80;;;2.50;;
10343;SDS011;5217;43.960;10.954;2022-08-16T06:33:11;7.03;;;2.50;;
10343;SDS011;5217;43.960;10.954;2022-08-16T06:35:49;5.05;;;2.35;;
10343;SDS011;5217;43.960;10.954;2022-08-16T06:38:24;3.95;;;2.00;;
10343;SDS011;5217;43.960;10.954;2022-08-16T06:41:00;3.38;;;2.20;;
10343;SDS011;5217;43.960;10.954;2022-08-16T06:43:32;6.03;;;2.20;;
10343;SDS011;5217;43.960;10.954;2022-08-16T06:46:02;8.40;;;2.47;;
10343;SDS011;5217;43.960;10.954;2022-08-16T06:48:35;7.80;;;2.13;;
10343;SDS011;5217;43.960;10.954;2022-08-16T06:51:10;4.18;;;2.15;;
10343;SDS011;5217;43.960;10.954;2022-08-16T06:53:40;9.25;;;2.40;;
10343;SDS011;5217;43.960;10.954;2022-08-16T06:56:08;6.85;;;2.47;;
10343;SDS011;5217;43.960;10.954;2022-08-16T06:58:48;5.82;;;2.20;;
10343;SDS011;5217;43.960;10.954;2022-08-16T07:01:17;6.35;;;2.33;;
10343;SDS011;5217;43.960;10.954;2022-08-16T07:04:05;4.35;;;2.38;;
10343;SDS011;5217;43.960;10.954;2022-08-16T07:06:39;4.85;;;2.28;;
10343;SDS011;5217;43.960;10.954;2022-08-16T07:09:09;3.83;;;2.03;;
10343;SDS011;5217;43.960;10.954;2022-08-16T07:11:37;4.70;;;2.35;;
10343;SDS011;5217;43.960;10.954;2022-08-16T07:14:13;4.75;;;2.38;;
10343;SDS011;5217;43.960;10.954;2022-08-16T07:16:52;8.98;;;2.30;;
10343;SDS011;5217;43.960;10.954;2022-08-16T07:19:24;3.00;;;2.10;;
10343;SDS011;5217;43.960;10.954;2022-08-16T07:22:17;3.08;;;1.95;;
10343;SDS011;5217;43.960;10.954;2022-08-16T07:25:05;3.47;;;2.10;;
10343;SDS011;5217;43.960;10.954;2022-08-16T07:27:37;3.53;;;2.13;;
10343;SDS011;5217;43.960;10.954;2022-08-16T07:30:07;8.93;;;2.30;;
10343;SDS011;5217;43.960;10.954;2022-08-16T07:32:57;4.47;;;1.80;;
10343;SDS011;5217;43.960;10.954;2022-08-16T07:35:26;7.00;;;2.50;;
10343;SDS011;5217;43.960;10.954;2022-08-16T07:37:56;4.88;;;2.40;;
10343;SDS011;5217;43.960;10.954;2022-08-16T07:40:25;3.83;;;1.98;;
10343;SDS011;5217;43.960;10.954;2022-08-16T07:43:13;6.22;;;2.10;;
10343;SDS011;5217;43.960;10.954;2022-08-16T07:45:42;3.97;;;2.10;;
10343;SDS011;5217;43.960;10.954;2022-08-16T07:48:18;4.72;;;2.28;;
10343;SDS011;5217;43.960;10.954;2022-08-16T07:50:49;6.15;;;2.47;;
10343;SDS011;5217;43.960;10.954;2022-08-16T07:53:26;3.28;;;2.22;;
10343;SDS011;5217;43.960;10.954;2022-08-16T07:55:56;4.63;;;2.55;;
10343;SDS011;5217;43.960;10.954;2022-08-16T07:58:26;5.55;;;2.60;;
10343;SDS011;5217;43.960;10.954;2022-08-16T08:01:01;4.10;;;2.20;;
10343;SDS011;5217;43.960;10.954;2022-08-16T08:03:36;4.13;;;2.60;;
10343;SDS011;5217;43.960;10.954;2022-08-16T08:06:10;4.10;;;2.30;;
10343;SDS011;5217;43.960;10.954;2022-08-16T08:08:41;8.05;;;2.40;;
10343;SDS011;5217;43.960;10.954;2022-08-16T08:11:17;6.75;;;2.83;;
10343;SDS011;5217;43.960;10.954;2022-08-16T08:13:47;5.07;;;2.50;;
10343;SDS011;5217;43.960;10.954;2022-08-16T08:16:16;6.85;;;2.55;;
10343;SDS011;5217;43.960;10.954;2022-08-16T08:18:46;7.00;;;2.80;;
10343;SDS011;5217;43.960;10.954;2022-08-16T08:21:26;5.38;;;2.78;;
10343;SDS011;5217;43.960;10.954;2022-08-16T08:24:16;5.05;;;3.00;;
10343;SDS011;5217;43.960;10.954;2022-08-16T08:26:45;6.32;;;2.80;;
10343;SDS011;5217;43.960;10.954;2022-08-16T08:29:16;7.60;;;2.80;;
10343;SDS011;5217;43.960;10.954;2022-08-16T08:31:48;7.00;;;3.30;;
10343;SDS011;5217;43.960;10.954;2022-08-16T08:34:18;7.35;;;3.25;;
10343;SDS011;5217;43.960;10.954;2022-08-16T08:36:48;4.05;;;2.90;;
10343;SDS011;5217;43.960;10.954;2022-08-16T08:39:21;6.10;;;2.90;;
10343;SDS011;5217;43.960;10.954;2022-08-16T08:41:50;5.65;;;2.70;;
10343;SDS011;5217;43.960;10.954;2022-08-16T08:44:20;4.43;;;2.55;;
10343;SDS011;5217;43.960;10.954;2022-08-16T08:46:56;6.35;;;2.78;;
10343;SDS011;5217;43.960;10.954;2022-08-16T08:49:27;4.15;;;2.67;;
10343;SDS011;5217;43.960;10.954;2022-08-16T08:52:17;5.30;;;2.78;;
10343;SDS011;5217;43.960;10.954;2022-08-16T08:55:02;9.60;;;2.70;;
10343;SDS011;5217;43.960;10.954;2022-08-16T08:57:37;4.47;;;2.67;;
10343;SDS011;5217;43.960;10.954;2022-08-16T09:00:07;6.82;;;2.90;;
10343;SDS011;5217;43.960;10.954;2022-08-16T09:02:39;5.13;;;2.55;;
10343;SDS011;5217;43.960;10.954;2022-08-16T09:05:10;5.18;;;2.40;;
10343;SDS011;5217;43.960;10.954;2022-08-16T09:07:41;4.47;;;2.47;;
10343;SDS011;5217;43.960;10.954;2022-08-16T09:10:28;5.20;;;2.20;;
10343;SDS011;5217;43.960;10.954;2022-08-16T09:12:59;4.95;;;2.25;;
10343;SDS011;5217;43.960;10.954;2022-08-16T09:15:28;4.18;;;2.60;;
10343;SDS011;5217;43.960;10.954;2022-08-16T09:17:58;4.25;;;2.67;;
10343;SDS011;5217;43.960;10.954;2022-08-16T09:20:48;6.72;;;2.65;;
10343;SDS011;5217;43.960;10.954;2022-08-16T09:23:26;6.90;;;2.72;;
10343;SDS011;5217;43.960;10.954;2022-08-16T09:26:03;5.20;;;2.63;;
10343;SDS011;5217;43.960;10.954;2022-08-16T09:28:54;6.85;;;2.55;;
10343;SDS011;5217;43.960;10.954;2022-08-16T09:31:42;5.97;;;2.60;;
10343;SDS011;5217;43.960;10.954;2022-08-16T09:34:11;6.45;;;2.78;;
10343;SDS011;5217;43.960;10.954;2022-08-16T09:36:44;4.50;;;2.40;;
10343;SDS011;5217;43.960;10.954;2022-08-16T09:39:13;5.80;;;2.50;;
10343;SDS011;5217;43.960;10.954;2022-08-16T09:41:44;6.47;;;2.40;;
10343;SDS011;5217;43.960;10.954;2022-08-16T09:44:19;6.93;;;2.60;;
10343;SDS011;5217;43.960;10.954;2022-08-16T09:47:09;3.15;;;2.38;;
10343;SDS011;5217;43.960;10.954;2022-08-16T09:49:37;4.65;;;2.40;;
10343;SDS011;5217;43.960;10.954;2022-08-16T09:52:07;4.35;;;2.42;;
10343;SDS011;5217;43.960;10.954;2022-08-16T09:54:37;5.57;;;2.75;;
10343;SDS011;5217;43.960;10.954;2022-08-16T09:57:12;6.63;;;2.50;;
10343;SDS011;5217;43.960;10.954;2022-08-16T09:59:40;5.22;;;2.38;;
10343;SDS011;5217;43.960;10.954;2022-08-16T10:02:09;4.65;;;2.00;;
10343;SDS011;5217;43.960;10.954;2022-08-16T10:04:53;4.00;;;1.90;;
10343;SDS011;5217;43.960;10.954;2022-08-16T10:07:23;3.00;;;2.15;;
10343;SDS011;5217;43.960;10.954;2022-08-16T10:10:10;5.55;;;2.15;;
10343;SDS011;5217;43.960;10.954;2022-08-16T10:12:45;6.43;;;2.60;;
10343;SDS011;5217;43.960;10.954;2022-08-16T10:15:33;3.78;;;2.33;;
10343;SDS011;5217;43.960;10.954;2022-08-16T10:18:03;3.35;;;2.17;;
10343;SDS011;5217;43.960;10.954;2022-08-16T10:20:55;5.35;;;2.47;;
10343;SDS011;5217;43.960;10.954;2022-08-16T10:23:24;5.35;;;2.28;;
10343;SDS011;5217;43.960;10.954;2022-08-16T10:25:55;5.40;;;2.50;;
10343;SDS011;5217;43.960;10.954;2022-08-16T10:28:44;7.22;;;2.75;;
10343;SDS011;5217;43.960;10.954;2022-08-16T10:31:15;4.18;;;2.08;;
10343;SDS011;5217;43.960;10.954;2022-08-16T10:34:05;4.40;;;2.25;;
10343;SDS011;5217;43.960;10.954;2022-08-16T10:36:53;3.60;;;2.40;;
10343;SDS011;5217;43.960;10.954;2022-08-16T10:39:22;6.03;;;2.40;;
10343;SDS011;5217;43.960;10.954;2022-08-16T10:41:51;3.05;;;1.92;;
10343;SDS011;5217;43.960;10.954;2022-08-16T10:44:21;4.28;;;2.35;;
10343;SDS011;5217;43.960;10.954;2022-08-16T10:46:49;6.32;;;2.45;;
10343;SDS011;5217;43.960;10.954;2022-08-16T10:49:21;4.78;;;2.53;;
10343;SDS011;5217;43.960;10.954;2022-08-16T10:51:54;3.88;;;2.22;;
10343;SDS011;5217;43.960;10.954;2022-08-16T10:54:28;4.18;;;2.08;;
10343;SDS011;5217;43.960;10.954;2022-08-16T10:56:57;3.50;;;2.20;;
10343;SDS011;5217;43.960;10.954;2022-08-16T10:59:31;4.95;;;2.50;;
10343;SDS011;5217;43.960;10.954;2022-08-16T11:02:21;4.20;;;2.30;;
10343;SDS011;5217;43.960;10.954;2022-08-16T11:05:11;8.95;;;2.47;;
10343;SDS011;5217;43.960;10.954;2022-08-16T11:07:42;2.60;;;2.13;;
10343;SDS011;5217;43.960;10.954;2022-08-16T11:10:20;3.03;;;2.20;;
10343;SDS011;5217;43.960;10.954;2022-08-16T11:13:11;6.10;;;2.50;;
10343;SDS011;5217;43.960;10.954;2022-08-16T11:16:03;3.78;;;2.20;;
10343;SDS011;5217;43.960;10.954;2022-08-16T11:18:51;4.78;;;2.60;;
10343;SDS011;5217;43.960;10.954;2022-08-16T11:21:33;5.20;;;2.30;;
10343;SDS011;5217;43.960;10.954;2022-08-16T11:24:22;3.58;;;2.13;;
10343;SDS011;5217;43.960;10.954;2022-08-16T11:27:07;4.63;;;2.15;;
10343;SDS011;5217;43.960;10.954;2022-08-16T11:29:46;5.72;;;2.83;;
10343;SDS011;5217;43.960;10.954;2022-08-16T11:32:19;3.55;;;2.30;;
10343;SDS011;5217;43.960;10.954;2022-08-16T11:34:59;6.80;;;2.60;;
10343;SDS011;5217;43.960;10.954;2022-08-16T11:37:37;4.93;;;2.80;;
10343;SDS011;5217;43.960;10.954;2022-08-16T11:40:26;5.78;;;3.00;;
10343;SDS011;5217;43.960;10.954;2022-08-16T11:42:59;4.95;;;2.70;;
10343;SDS011;5217;43.960;10.954;2022-08-16T11:45:35;5.28;;;2.55;;
10343;SDS011;5217;43.960;10.954;2022-08-16T11:48:09;4.50;;;2.55;;
10343;SDS011;5217;43.960;10.954;2022-08-16T11:50:39;4.05;;;2.53;;
10343;SDS011;5217;43.960;10.954;2022-08-16T11:53:08;5.43;;;2.40;;
10343;SDS011;5217;43.960;10.954;2022-08-16T11:55:42;5.97;;;2.85;;
10343;SDS011;5217;43.960;10.954;2022-08-16T11:58:15;7.60;;;2.90;;
10343;SDS011;5217;43.960;10.954;2022-08-16T12:00:46;3.72;;;2.55;;
10343;SDS011;5217;43.960;10.954;2022-08-16T12:03:20;6.32;;;2.95;;
10343;SDS011;5217;43.960;10.954;2022-08-16T12:06:05;4.35;;;2.58;;
10343;SDS011;5217;43.960;10.954;2022-08-16T12:08:56;7.47;;;3.20;;
10343;SDS011;5217;43.960;10.954;2022-08-16T12:11:27;7.57;;;3.17;;
10343;SDS011;5217;43.960;10.954;2022-08-16T12:13:57;5.57;;;3.15;;
10343;SDS011;5217;43.960;10.954;2022-08-16T12:16:26;7.60;;;2.90;;
10343;SDS011;5217;43.960;10.954;2022-08-16T12:19:00;6.15;;;2.97;;
10343;SDS011;5217;43.960;10.954;2022-08-16T12:21:30;6.57;;;3.17;;
10343;SDS011;5217;43.960;10.954;2022-08-16T12:24:18;7.18;;;2.97;;
10343;SDS011;5217;43.960;10.954;2022-08-16T12:26:49;4.53;;;2.72;;
10343;SDS011;5217;43.960;10.954;2022-08-16T12:29:19;5.57;;;2.80;;
10343;SDS011;5217;43.960;10.954;2022-08-16T12:31:47;5.05;;;2.72;;
10343;SDS011;5217;43.960;10.954;2022-08-16T12:34:38;6.88;;;3.08;;
10343;SDS011;5217;43.960;10.954;2022-08-16T12:37:18;7.60;;;2.75;;
10343;SDS011;5217;43.960;10.954;2022-08-16T12:39:49;4.88;;;2.47;;
10343;SDS011;5217;43.960;10.954;2022-08-16T12:42:20;4.57;;;2.60;;
10343;SDS011;5217;43.960;10.954;2022-08-16T12:44:59;4.05;;;2.55;;
10343;SDS011;5217;43.960;10.954;2022-08-16T12:47:28;7.40;;;2.75;;
10343;SDS011;5217;43.960;10.954;2022-08-16T12:50:15;6.95;;;3.00;;
10343;SDS011;5217;43.960;10.954;2022-08-16T12:52:44;6.20;;;2.97;;
10343;SDS011;5217;43.960;10.954;2022-08-16T12:55:18;5.57;;;2.78;;
10343;SDS011;5217;43.960;10.954;2022-08-16T12:57:59;6.07;;;3.08;;
10343;SDS011;5217;43.960;10.954;2022-08-16T13:00:59;6.15;;;3.10;;
10343;SDS011;5217;43.960;10.954;2022-08-16T13:03:37;5.10;;;2.58;;
10343;SDS011;5217;43.960;10.954;2022-08-16T13:06:13;7.20;;;2.80;;
10343;SDS011;5217;43.960;10.954;2022-08-16T13:09:03;7.20;;;3.33;;
10343;SDS011;5217;43.960;10.954;2022-08-16T13:11:56;7.25;;;2.70;;
10343;SDS011;5217;43.960;10.954;2022-08-16T13:14:37;7.57;;;2.90;;
10343;SDS011;5217;43.960;10.954;2022-08-16T13:17:20;5.95;;;3.33;;
10343;SDS011;5217;43.960;10.954;2022-08-16T13:19:58;7.95;;;2.80;;
10343;SDS011;5217;43.960;10.954;2022-08-16T13:22:40;3.53;;;2.40;;
10343;SDS011;5217;43.960;10.954;2022-08-16T13:25:14;4.55;;;2.72;;
10343;SDS011;5217;43.960;10.954;2022-08-16T13:27:51;6.45;;;3.10;;
10343;SDS011;5217;43.960;10.954;2022-08-16T13:30:44;4.68;;;2.80;;
10343;SDS011;5217;43.960;10.954;2022-08-16T13:33:15;5.00;;;2.75;;
10343;SDS011;5217;43.960;10.954;2022-08-16T13:35:53;4.82;;;2.60;;
10343;SDS011;5217;43.960;10.954;2022-08-16T13:38:24;7.68;;;3.50;;
10343;SDS011;5217;43.960;10.954;2022-08-16T13:40:58;4.75;;;2.50;;
10343;SDS011;5217;43.960;10.954;2022-08-16T13:43:28;6.85;;;3.17;;
10343;SDS011;5217;43.960;10.954;2022-08-16T13:45:58;5.35;;;3.00;;
10343;SDS011;5217;43.960;10.954;2022-08-16T13:48:30;10.48;;;3.17;;
10343;SDS011;5217;43.960;10.954;2022-08-16T13:51:10;8.00;;;2.85;;
10343;SDS011;5217;43.960;10.954;2022-08-16T13:53:44;6.75;;;3.53;;
10343;SDS011;5217;43.960;10.954;2022-08-16T13:56:25;4.70;;;2.85;;
10343;SDS011;5217;43.960;10.954;2022-08-16T13:59:04;5.82;;;3.15;;
10343;SDS011;5217;43.960;10.954;2022-08-16T14:01:47;6.40;;;2.83;;
10343;SDS011;5217;43.960;10.954;2022-08-16T14:04:22;6.05;;;2.70;;
10343;SDS011;5217;43.960;10.954;2022-08-16T14:06:53;5.57;;;3.33;;
10343;SDS011;5217;43.960;10.954;2022-08-16T14:09:24;5.85;;;3.22;;
10343;SDS011;5217;43.960;10.954;2022-08-16T14:11:53;4.35;;;2.97;;
10343;SDS011;5217;43.960;10.954;2022-08-16T14:14:22;7.03;;;3.05;;
10343;SDS011;5217;43.960;10.954;2022-08-16T14:16:54;4.82;;;2.85;;
10343;SDS011;5217;43.960;10.954;2022-08-16T14:19:23;5.75;;;2.97;;
10343;SDS011;5217;43.960;10.954;2022-08-16T14:21:54;4.07;;;2.70;;
10343;SDS011;5217;43.960;10.954;2022-08-16T14:24:42;7.75;;;3.03;;
10343;SDS011;5217;43.960;10.954;2022-08-16T14:27:12;5.35;;;2.83;;
10343;SDS011;5217;43.960;10.954;2022-08-16T14:29:42;6.13;;;2.92;;
10343;SDS011;5217;43.960;10.954;2022-08-16T14:32:14;5.90;;;2.80;;
10343;SDS011;5217;43.960;10.954;2022-08-16T14:35:00;10.07;;;3.67;;
10343;SDS011;5217;43.960;10.954;2022-08-16T14:37:32;6.93;;;3.03;;
10343;SDS011;5217;43.960;10.954;2022-08-16T14:40:03;7.15;;;3.20;;
10343;SDS011;5217;43.960;10.954;2022-08-16T14:42:33;7.43;;;3.25;;
10343;SDS011;5217;43.960;10.954;2022-08-16T14:45:02;8.35;;;3.22;;
10343;SDS011;5217;43.960;10.954;2022-08-16T14:47:32;4.93;;;2.80;;
10343;SDS011;5217;43.960;10.954;2022-08-16T14:50:03;8.13;;;3.10;;
10343;SDS011;5217;43.960;10.954;2022-08-16T14:52:33;4.65;;;2.38;;
10343;SDS011;5217;43.960;10.954;2022-08-16T14:55:23;4.68;;;2.80;;
10343;SDS011;5217;43.960;10.954;2022-08-16T14:57:52;6.53;;;2.83;;
10343;SDS011;5217;43.960;10.954;2022-08-16T15:00:21;9.55;;;3.30;;
10343;SDS011;5217;43.960;10.954;2022-08-16T15:02:59;6.18;;;3.13;;
10343;SDS011;5217;43.960;10.954;2022-08-16T15:05:30;6.28;;;2.90;;
10343;SDS011;5217;43.960;10.954;2022-08-16T15:08:00;7.40;;;2.70;;
10343;SDS011;5217;43.960;10.954;2022-08-16T15:10:30;4.68;;;2.72;;
10343;SDS011;5217;43.960;10.954;2022-08-16T15:13:03;5.57;;;2.85;;
10343;SDS011;5217;43.960;10.954;2022-08-16T15:15:35;7.05;;;2.97;;
10343;SDS011;5217;43.960;10.954;2022-08-16T15:18:04;4.05;;;2.95;;
10343;SDS011;5217;43.960;10.954;2022-08-16T15:20:37;7.80;;;3.20;;
10343;SDS011;5217;43.960;10.954;2022-08-16T15:23:07;8.35;;;3.08;;
10343;SDS011;5217;43.960;10.954;2022-08-16T15:25:39;7.80;;;3.20;;
10343;SDS011;5217;43.960;10.954;2022-08-16T15:28:25;10.60;;;3.67;;
10343;SDS011;5217;43.960;10.954;2022-08-16T15:30:57;5.57;;;3.13;;
10343;SDS011;5217;43.960;10.954;2022-08-16T15:33:29;5.03;;;3.15;;
10343;SDS011;5217;43.960;10.954;2022-08-16T15:36:00;8.90;;;3.33;;
10343;SDS011;5217;43.960;10.954;2022-08-16T15:38:29;6.32;;;3.10;;